sensor_id;sensor_type;location;lat;lon;timestamp;pressure;altitude;pressure_sealevel;temperature;humidity
25664;BME280;13522;50.018;20.014;2022-09-06T00:00:50;99603.11;;;12.71;86.98
25664;BME280;13522;50.018;20.014;2022-09-06T00:04:02;99595.23;;;12.70;87.95
25664;BME280;13522;50.018;20.014;2022-09-06T00:07:16;99597.89;;;12.70;88.41
25664;BME280;13522;50.018;20.014;2022-09-06T00:10:28;99592.99;;;12.65;89.13
25664;BME280;13522;50.018;20.014;2022-09-06T00:13:43;99587.06;;;12.62;89.12
25664;BME280;13522;50.018;20.014;2022-09-06T00:16:55;99587.92;;;12.62;89.54
25664;BME280;13522;50.018;20.014;2022-09-06T00:20:08;99575.70;;;12.60;88.50
25664;BME280;13522;50.018;20.014;2022-09-06T00:23:21;99580.48;;;12.66;89.07
25664;BME280;13522;50.018;20.014;2022-09-06T00:26:32;99576.55;;;12.60;89.38
25664;BME280;13522;50.018;20.014;2022-09-06T00:29:44;99578.96;;;12.63;88.72
25664;BME280;13522;50.018;20.014;2022-09-06T00:32:56;99578.67;;;12.66;87.51
25664;BME280;13522;50.018;20.014;2022-09-06T00:36:08;99587.38;;;12.68;88.02
25664;BME280;13522;50.018;20.014;2022-09-06T00:39:20;99586.81;;;12.65;87.07
25664;BME280;13522;50.018;20.014;2022-09-06T00:42:32;99583.98;;;12.57;90.73
25664;BME280;13522;50.018;20.014;2022-09-06T00:45:43;99575.56;;;12.52;89.25
25664;BME280;13522;50.018;20.014;2022-09-06T00:48:58;99577.92;;;12.45;88.78
25664;BME280;13522;50.018;20.014;2022-09-06T00:52:15;99581.83;;;12.41;90.20
25664;BME280;13522;50.018;20.014;2022-09-06T00:55:27;99572.42;;;12.37;90.03
25664;BME280;13522;50.018;20.014;2022-09-06T00:58:39;99583.08;;;12.37;89.32
25664;BME280;13522;50.018;20.014;2022-09-06T01:01:52;99581.66;;;12.33;88.48
25664;BME280;13522;50.018;20.014;2022-09-06T01:05:06;99586.45;;;12.39;89.22
25664;BME280;13522;50.018;20.014;2022-09-06T01:08:26;99573.27;;;12.38;87.38
25664;BME280;13522;50.018;20.014;2022-09-06T04:06:10;99542.41;;;10.70;95.67
25664;BME280;13522;50.018;20.014;2022-09-06T04:09:27;99542.67;;;10.67;94.55
25664;BME280;13522;50.018;20.014;2022-09-06T04:16:58;99548.62;;;10.60;95.64
25664;BME280;13522;50.018;20.014;2022-09-06T04:20:12;99550.06;;;10.53;94.70
25664;BME280;13522;50.018;20.014;2022-09-06T04:23:31;99552.95;;;10.61;95.98
25664;BME280;13522;50.018;20.014;2022-09-06T04:26:45;99555.38;;;10.53;95.11
25664;BME280;13522;50.018;20.014;2022-09-06T04:29:59;99544.62;;;10.54;95.49
25664;BME280;13522;50.018;20.014;2022-09-06T04:33:16;99548.48;;;10.61;95.83
25664;BME280;13522;50.018;20.014;2022-09-06T04:37:36;99549.44;;;10.60;96.15
25664;BME280;13522;50.018;20.014;2022-09-06T04:49:09;99555.47;;;10.73;96.09
25664;BME280;13522;50.018;20.014;2022-09-06T04:52:27;99548.66;;;10.80;95.25
25664;BME280;13522;50.018;20.014;2022-09-06T04:55:42;99554.68;;;10.93;93.61
25664;BME280;13522;50.018;20.014;2022-09-06T04:58:58;99560.45;;;10.98;92.44
25664;BME280;13522;50.018;20.014;2022-09-06T05:02:13;99559.94;;;11.04;92.47
25664;BME280;13522;50.018;20.014;2022-09-06T05:05:25;99554.12;;;11.10;91.75
25664;BME280;13522;50.018;20.014;2022-09-06T05:08:40;99550.61;;;11.10;91.89
25664;BME280;13522;50.018;20.014;2022-09-06T05:11:52;99556.85;;;11.20;91.86
25664;BME280;13522;50.018;20.014;2022-09-06T05:15:07;99556.34;;;11.26;92.44
25664;BME280;13522;50.018;20.014;2022-09-06T05:18:20;99558.35;;;11.33;91.01
25664;BME280;13522;50.018;20.014;2022-09-06T05:21:34;99560.26;;;11.43;91.82
25664;BME280;13522;50.018;20.014;2022-09-06T05:24:46;99560.66;;;11.59;92.05
25664;BME280;13522;50.018;20.014;2022-09-06T05:27:58;99557.14;;;11.58;88.93
25664;BME280;13522;50.018;20.014;2022-09-06T05:31:11;99553.35;;;11.61;90.99
25664;BME280;13522;50.018;20.014;2022-09-06T05:34:27;99552.25;;;11.63;89.43
25664;BME280;13522;50.018;20.014;2022-09-06T05:37:39;99550.69;;;11.61;91.55
25664;BME280;13522;50.018;20.014;2022-09-06T05:40:51;99567.64;;;11.60;89.44
25664;BME280;13522;50.018;20.014;2022-09-06T05:44:03;99568.94;;;11.65;90.50
25664;BME280;13522;50.018;20.014;2022-09-06T05:47:15;99569.07;;;11.64;88.20
25664;BME280;13522;50.018;20.014;2022-09-06T05:50:26;99564.22;;;11.69;90.65
25664;BME280;13522;50.018;20.014;2022-09-06T05:53:41;99562.74;;;11.76;88.78
25664;BME280;13522;50.018;20.014;2022-09-06T05:56:53;99560.79;;;11.78;89.53
25664;BME280;13522;50.018;20.014;2022-09-06T06:00:07;99556.42;;;11.77;89.76
25664;BME280;13522;50.018;20.014;2022-09-06T06:03:21;99569.54;;;11.89;90.06
25664;BME280;13522;50.018;20.014;2022-09-06T06:06:34;99566.48;;;11.94;90.57
25664;BME280;13522;50.018;20.014;2022-09-06T06:09:47;99579.98;;;12.02;91.84
25664;BME280;13522;50.018;20.014;2022-09-06T06:12:59;99566.57;;;12.13;91.03
25664;BME280;13522;50.018;20.014;2022-09-06T06:16:12;99567.98;;;12.17;90.72
25664;BME280;13522;50.018;20.014;2022-09-06T06:19:26;99572.33;;;12.58;88.93
25664;BME280;13522;50.018;20.014;2022-09-06T06:22:38;99557.88;;;13.29;84.47
25664;BME280;13522;50.018;20.014;2022-09-06T06:25:49;99562.05;;;13.60;84.35
25664;BME280;13522;50.018;20.014;2022-09-06T06:29:01;99557.94;;;13.75;82.67
25664;BME280;13522;50.018;20.014;2022-09-06T06:39:38;99553.61;;;14.11;80.04
25664;BME280;13522;50.018;20.014;2022-09-06T06:42:50;99550.27;;;14.45;79.89
25664;BME280;13522;50.018;20.014;2022-09-06T06:46:31;99549.58;;;14.43;80.09
25664;BME280;13522;50.018;20.014;2022-09-06T06:49:46;99547.94;;;14.33;79.40
25664;BME280;13522;50.018;20.014;2022-09-06T06:53:08;99547.64;;;14.26;78.86
25664;BME280;13522;50.018;20.014;2022-09-06T06:56:21;99559.28;;;14.71;78.25
25664;BME280;13522;50.018;20.014;2022-09-06T06:59:35;99550.58;;;15.40;76.89
25664;BME280;13522;50.018;20.014;2022-09-06T07:03:33;99551.67;;;16.50;72.71
25664;BME280;13522;50.018;20.014;2022-09-06T07:06:51;99543.47;;;17.25;69.30
25664;BME280;13522;50.018;20.014;2022-09-06T07:10:07;99544.95;;;17.19;68.68
25664;BME280;13522;50.018;20.014;2022-09-06T07:13:23;99545.80;;;17.20;68.79
25664;BME280;13522;50.018;20.014;2022-09-06T07:16:34;99544.82;;;17.61;66.10
25664;BME280;13522;50.018;20.014;2022-09-06T07:19:46;99547.70;;;18.31;65.06
25664;BME280;13522;50.018;20.014;2022-09-06T07:23:02;99540.69;;;18.22;63.85
25664;BME280;13522;50.018;20.014;2022-09-06T07:26:24;99544.75;;;18.09;66.37
25664;BME280;13522;50.018;20.014;2022-09-06T07:29:38;99550.66;;;17.97;65.38
25664;BME280;13522;50.018;20.014;2022-09-06T07:32:50;99552.84;;;18.01;66.69
25664;BME280;13522;50.018;20.014;2022-09-06T07:36:07;99554.28;;;18.75;66.05
25664;BME280;13522;50.018;20.014;2022-09-06T07:39:36;99555.80;;;18.23;65.33
25664;BME280;13522;50.018;20.014;2022-09-06T07:42:48;99553.20;;;17.98;66.12
25664;BME280;13522;50.018;20.014;2022-09-06T07:46:05;99552.82;;;18.09;66.43
25664;BME280;13522;50.018;20.014;2022-09-06T07:49:17;99562.28;;;17.73;67.37
25664;BME280;13522;50.018;20.014;2022-09-06T07:52:29;99561.27;;;17.90;68.19
25664;BME280;13522;50.018;20.014;2022-09-06T07:55:43;99541.25;;;19.17;64.78
25664;BME280;13522;50.018;20.014;2022-09-06T07:58:54;99543.02;;;19.70;61.50
25664;BME280;13522;50.018;20.014;2022-09-06T08:02:06;99542.60;;;19.96;60.74
25664;BME280;13522;50.018;20.014;2022-09-06T08:05:18;99532.70;;;20.25;59.33
25664;BME280;13522;50.018;20.014;2022-09-06T08:08:32;99527.56;;;20.45;57.77
25664;BME280;13522;50.018;20.014;2022-09-06T08:11:45;99537.36;;;20.46;61.72
25664;BME280;13522;50.018;20.014;2022-09-06T08:14:57;99535.27;;;20.04;60.73
25664;BME280;13522;50.018;20.014;2022-09-06T08:18:09;99535.16;;;19.98;61.16
25664;BME280;13522;50.018;20.014;2022-09-06T08:21:21;99529.31;;;19.94;61.03
25664;BME280;13522;50.018;20.014;2022-09-06T08:24:34;99532.31;;;20.43;60.69
25664;BME280;13522;50.018;20.014;2022-09-06T08:27:46;99516.73;;;21.10;59.13
25664;BME280;13522;50.018;20.014;2022-09-06T08:31:06;99517.60;;;21.59;57.65
25664;BME280;13522;50.018;20.014;2022-09-06T08:34:19;99511.23;;;22.22;55.79
25664;BME280;13522;50.018;20.014;2022-09-06T08:37:30;99503.81;;;22.84;54.23
25664;BME280;13522;50.018;20.014;2022-09-06T08:40:42;99512.09;;;22.63;52.24
25664;BME280;13522;50.018;20.014;2022-09-06T08:43:56;99500.97;;;23.05;52.10
25664;BME280;13522;50.018;20.014;2022-09-06T08:47:12;99494.14;;;23.36;52.17
25664;BME280;13522;50.018;20.014;2022-09-06T08:50:27;99488.33;;;23.45;51.04
25664;BME280;13522;50.018;20.014;2022-09-06T08:53:42;99487.70;;;23.63;50.51
25664;BME280;13522;50.018;20.014;2022-09-06T08:57:05;99490.41;;;23.63;49.22
25664;BME280;13522;50.018;20.014;2022-09-06T09:00:21;99494.79;;;23.77;46.15
25664;BME280;13522;50.018;20.014;2022-09-06T09:03:35;99481.40;;;24.65;46.72
25664;BME280;13522;50.018;20.014;2022-09-06T09:06:52;99492.44;;;24.13;44.10
25664;BME280;13522;50.018;20.014;2022-09-06T09:10:11;99500.80;;;24.18;45.10
25664;BME280;13522;50.018;20.014;2022-09-06T09:13:28;99490.27;;;24.41;44.19
25664;BME280;13522;50.018;20.014;2022-09-06T09:16:42;99491.30;;;24.98;45.24
25664;BME280;13522;50.018;20.014;2022-09-06T09:19:54;99483.75;;;25.31;43.35
25664;BME280;13522;50.018;20.014;2022-09-06T09:23:06;99481.72;;;25.20;43.93
25664;BME280;13522;50.018;20.014;2022-09-06T09:26:19;99465.14;;;25.59;43.20
25664;BME280;13522;50.018;20.014;2022-09-06T09:29:33;99467.06;;;25.76;44.18
25664;BME280;13522;50.018;20.014;2022-09-06T09:32:56;99467.01;;;26.01;42.39
25664;BME280;13522;50.018;20.014;2022-09-06T09:36:11;99463.73;;;26.35;41.75
25664;BME280;13522;50.018;20.014;2022-09-06T09:39:33;99455.86;;;25.66;41.11
25664;BME280;13522;50.018;20.014;2022-09-06T09:42:46;99447.69;;;25.66;42.25
25664;BME280;13522;50.018;20.014;2022-09-06T09:46:28;99436.63;;;26.04;42.00
25664;BME280;13522;50.018;20.014;2022-09-06T09:49:41;99444.36;;;26.25;41.20
25664;BME280;13522;50.018;20.014;2022-09-06T09:52:54;99426.92;;;26.44;40.66
25664;BME280;13522;50.018;20.014;2022-09-06T09:56:06;99434.23;;;26.32;39.78
25664;BME280;13522;50.018;20.014;2022-09-06T09:59:24;99427.88;;;26.38;39.22
25664;BME280;13522;50.018;20.014;2022-09-06T10:02:37;99422.59;;;25.40;40.34
25664;BME280;13522;50.018;20.014;2022-09-06T10:05:57;99421.12;;;25.87;39.96
25664;BME280;13522;50.018;20.014;2022-09-06T10:09:18;99421.80;;;24.70;41.84
25664;BME280;13522;50.018;20.014;2022-09-06T10:12:31;99414.73;;;24.63;42.70
25664;BME280;13522;50.018;20.014;2022-09-06T10:15:44;99399.80;;;24.85;41.29
25664;BME280;13522;50.018;20.014;2022-09-06T10:18:57;99398.41;;;24.69;41.00
25664;BME280;13522;50.018;20.014;2022-09-06T10:22:16;99399.76;;;24.54;41.56
25664;BME280;13522;50.018;20.014;2022-09-06T10:25:40;99397.56;;;24.75;41.48
25664;BME280;13522;50.018;20.014;2022-09-06T10:28:57;99387.47;;;24.82;41.91
25664;BME280;13522;50.018;20.014;2022-09-06T10:32:21;99383.34;;;23.65;42.30
25664;BME280;13522;50.018;20.014;2022-09-06T10:35:38;99393.83;;;23.36;45.39
25664;BME280;13522;50.018;20.014;2022-09-06T10:38:55;99388.58;;;23.27;43.16
25664;BME280;13522;50.018;20.014;2022-09-06T10:42:15;99382.14;;;23.28;45.17
25664;BME280;13522;50.018;20.014;2022-09-06T10:45:43;99379.20;;;23.56;44.60
25664;BME280;13522;50.018;20.014;2022-09-06T10:48:58;99385.88;;;23.67;44.83
25664;BME280;13522;50.018;20.014;2022-09-06T11:11:48;99384.84;;;22.89;44.45
25664;BME280;13522;50.018;20.014;2022-09-06T11:27:52;99362.13;;;23.36;44.79
25664;BME280;13522;50.018;20.014;2022-09-06T12:18:05;99322.53;;;23.35;44.60
25664;BME280;13522;50.018;20.014;2022-09-06T12:21:38;99322.81;;;23.78;44.30
25664;BME280;13522;50.018;20.014;2022-09-06T13:34:24;99272.19;;;23.59;43.92
25664;BME280;13522;50.018;20.014;2022-09-06T13:37:53;99261.05;;;23.73;45.10
25664;BME280;13522;50.018;20.014;2022-09-06T14:12:37;99242.52;;;22.61;46.12
25664;BME280;13522;50.018;20.014;2022-09-06T14:15:50;99238.33;;;22.32;46.46
25664;BME280;13522;50.018;20.014;2022-09-06T14:20:09;99237.90;;;22.22;46.50
25664;BME280;13522;50.018;20.014;2022-09-06T14:23:22;99234.95;;;22.17;47.45
25664;BME280;13522;50.018;20.014;2022-09-06T14:26:36;99233.74;;;22.26;47.67
25664;BME280;13522;50.018;20.014;2022-09-06T14:29:50;99228.73;;;22.23;49.70
25664;BME280;13522;50.018;20.014;2022-09-06T14:49:45;99205.80;;;21.99;50.10
25664;BME280;13522;50.018;20.014;2022-09-06T14:56:03;99215.34;;;21.82;49.07
25664;BME280;13522;50.018;20.014;2022-09-06T15:02:19;99216.52;;;21.73;48.54
25664;BME280;13522;50.018;20.014;2022-09-06T15:05:36;99215.97;;;21.91;48.85
25664;BME280;13522;50.018;20.014;2022-09-06T15:09:00;99219.72;;;21.90;49.58
25664;BME280;13522;50.018;20.014;2022-09-06T15:12:41;99206.20;;;21.90;47.65
25664;BME280;13522;50.018;20.014;2022-09-06T15:25:33;99206.22;;;21.96;50.02
25664;BME280;13522;50.018;20.014;2022-09-06T15:28:49;99208.70;;;21.91;49.95
25664;BME280;13522;50.018;20.014;2022-09-06T15:32:09;99194.13;;;21.86;50.40
25664;BME280;13522;50.018;20.014;2022-09-06T15:35:21;99200.30;;;21.67;47.92
25664;BME280;13522;50.018;20.014;2022-09-06T15:39:21;99201.11;;;21.61;49.44
25664;BME280;13522;50.018;20.014;2022-09-06T15:43:02;99194.02;;;21.53;49.81
25664;BME280;13522;50.018;20.014;2022-09-06T15:46:16;99198.55;;;21.46;50.05
25664;BME280;13522;50.018;20.014;2022-09-06T15:49:31;99195.00;;;21.45;50.51
25664;BME280;13522;50.018;20.014;2022-09-06T15:52:46;99191.49;;;21.45;51.74
25664;BME280;13522;50.018;20.014;2022-09-06T15:56:43;99187.28;;;21.36;50.26
25664;BME280;13522;50.018;20.014;2022-09-06T16:00:34;99161.23;;;21.15;50.66
25664;BME280;13522;50.018;20.014;2022-09-06T16:04:35;99191.58;;;21.17;49.97
25664;BME280;13522;50.018;20.014;2022-09-06T16:08:35;99187.95;;;21.04;50.93
25664;BME280;13522;50.018;20.014;2022-09-06T16:12:31;99193.10;;;20.99;52.35
25664;BME280;13522;50.018;20.014;2022-09-06T16:15:44;99192.67;;;20.95;51.98
25664;BME280;13522;50.018;20.014;2022-09-06T16:19:06;99191.55;;;20.83;52.58
25664;BME280;13522;50.018;20.014;2022-09-06T16:25:20;99189.31;;;20.59;54.31
25664;BME280;13522;50.018;20.014;2022-09-06T16:41:23;99188.39;;;20.03;56.39
25664;BME280;13522;50.018;20.014;2022-09-06T16:45:04;99187.84;;;19.86;58.38
25664;BME280;13522;50.018;20.014;2022-09-06T16:48:16;99185.63;;;19.75;58.46
25664;BME280;13522;50.018;20.014;2022-09-06T16:51:29;99182.41;;;19.65;58.87
25664;BME280;13522;50.018;20.014;2022-09-06T16:54:41;99184.02;;;19.60;57.83
25664;BME280;13522;50.018;20.014;2022-09-06T16:57:53;99181.63;;;19.50;58.89
25664;BME280;13522;50.018;20.014;2022-09-06T17:01:07;99179.89;;;19.43;60.59
25664;BME280;13522;50.018;20.014;2022-09-06T17:04:20;99184.34;;;19.36;60.98
25664;BME280;13522;50.018;20.014;2022-09-06T17:07:32;99179.78;;;19.22;61.22
25664;BME280;13522;50.018;20.014;2022-09-06T17:10:44;99185.02;;;19.09;60.09
25664;BME280;13522;50.018;20.014;2022-09-06T17:13:56;99187.05;;;18.92;61.14
25664;BME280;13522;50.018;20.014;2022-09-06T17:17:08;99185.84;;;18.80;62.63
25664;BME280;13522;50.018;20.014;2022-09-06T17:20:22;99185.58;;;18.75;62.86
25664;BME280;13522;50.018;20.014;2022-09-06T17:23:34;99176.48;;;18.61;63.74
25664;BME280;13522;50.018;20.014;2022-09-06T17:26:48;99184.83;;;18.52;64.31
25664;BME280;13522;50.018;20.014;2022-09-06T17:29:59;99180.17;;;18.46;63.15
25664;BME280;13522;50.018;20.014;2022-09-06T17:33:11;99181.53;;;18.42;63.81
25664;BME280;13522;50.018;20.014;2022-09-06T17:36:25;99186.60;;;18.37;63.20
25664;BME280;13522;50.018;20.014;2022-09-06T17:39:39;99189.67;;;18.34;63.29
25664;BME280;13522;50.018;20.014;2022-09-06T17:42:51;99193.81;;;18.22;67.13
25664;BME280;13522;50.018;20.014;2022-09-06T18:20:26;99228.20;;;17.58;65.59
25664;BME280;13522;50.018;20.014;2022-09-06T19:02:58;99238.81;;;17.05;66.30
25664;BME280;13522;50.018;20.014;2022-09-06T19:06:27;99245.38;;;16.94;65.38
25664;BME280;13522;50.018;20.014;2022-09-06T19:10:09;99238.49;;;16.92;65.79
25664;BME280;13522;50.018;20.014;2022-09-06T19:13:30;99250.43;;;16.89;67.35
25664;BME280;13522;50.018;20.014;2022-09-06T22:19:54;99202.86;;;13.75;70.52
25664;BME280;13522;50.018;20.014;2022-09-06T22:23:07;99204.84;;;13.73;70.63
25664;BME280;13522;50.018;20.014;2022-09-06T22:26:22;99209.21;;;13.74;69.81
25664;BME280;13522;50.018;20.014;2022-09-06T22:29:35;99193.80;;;13.68;69.77
25664;BME280;13522;50.018;20.014;2022-09-06T22:32:47;99196.31;;;13.69;69.08
25664;BME280;13522;50.018;20.014;2022-09-06T22:36:00;99189.76;;;13.64;69.51
25664;BME280;13522;50.018;20.014;2022-09-06T22:39:15;99184.34;;;13.56;68.91
25664;BME280;13522;50.018;20.014;2022-09-06T22:42:28;99187.45;;;13.51;69.38
25664;BME280;13522;50.018;20.014;2022-09-06T22:45:41;99183.28;;;13.49;68.99
25664;BME280;13522;50.018;20.014;2022-09-06T22:48:57;99178.39;;;13.44;68.90
25664;BME280;13522;50.018;20.014;2022-09-06T22:52:11;99187.37;;;13.43;70.32
25664;BME280;13522;50.018;20.014;2022-09-06T22:55:24;99187.84;;;13.39;68.63
25664;BME280;13522;50.018;20.014;2022-09-06T22:58:36;99184.77;;;13.34;69.63
25664;BME280;13522;50.018;20.014;2022-09-06T23:01:49;99186.06;;;13.30;69.76
25664;BME280;13522;50.018;20.014;2022-09-06T23:05:01;99177.80;;;13.23;69.54
25664;BME280;13522;50.018;20.014;2022-09-06T23:08:16;99190.45;;;13.21;70.61
25664;BME280;13522;50.018;20.014;2022-09-06T23:11:29;99181.48;;;13.22;69.21
25664;BME280;13522;50.018;20.014;2022-09-06T23:14:42;99187.94;;;13.20;68.62
25664;BME280;13522;50.018;20.014;2022-09-06T23:17:55;99186.81;;;13.22;69.99
25664;BME280;13522;50.018;20.014;2022-09-06T23:21:09;99181.10;;;13.17;70.48
25664;BME280;13522;50.018;20.014;2022-09-06T23:24:23;99186.19;;;13.11;69.08
25664;BME280;13522;50.018;20.014;2022-09-06T23:27:36;99190.52;;;13.12;69.71
25664;BME280;13522;50.018;20.014;2022-09-06T23:30:48;99190.13;;;13.07;70.06
25664;BME280;13522;50.018;20.014;2022-09-06T23:34:03;99188.16;;;13.09;69.02
25664;BME280;13522;50.018;20.014;2022-09-06T23:37:16;99176.48;;;13.10;70.48
25664;BME280;13522;50.018;20.014;2022-09-06T23:40:28;99181.98;;;13.08;68.46
25664;BME280;13522;50.018;20.014;2022-09-06T23:43:42;99174.52;;;13.12;69.34
25664;BME280;13522;50.018;20.014;2022-09-06T23:46:55;99173.98;;;13.08;71.33
25664;BME280;13522;50.018;20.014;2022-09-06T23:50:09;99168.11;;;13.04;68.78
25664;BME280;13522;50.018;20.014;2022-09-06T23:53:21;99158.00;;;12.98;69.70
25664;BME280;13522;50.018;20.014;2022-09-06T23:56:34;99156.63;;;12.94;67.36
25664;BME280;13522;50.018;20.014;2022-09-06T23:59:46;99158.59;;;12.92;68.24
